Time;durP1;ratioP1;P1;durP2;ratioP2;P2;SDS_P1;SDS_P2;PMS_P1;PMS_P2;Temp;Humidity;BMP_temperature;BMP_pressure;BME280_temperature;BME280_humidity;BME280_pressure;Samples;Min_cycle;Max_cycle;Signal;HPM_P1;HPM_P2
2021/06/16 00:02:25;;;;;;;5.88;4.70;;;18.90;99.90;;;;;;6244971;23;20005;-79
2021/06/16 00:04:50;;;;;;;5.28;4.65;;;18.70;99.90;;;;;;6244269;23;20007;-79
2021/06/16 00:07:16;;;;;;;8.57;5.38;;;18.50;99.90;;;;;;6244745;23;20075;-79
2021/06/16 00:09:42;;;;;;;8.10;4.72;;;18.70;99.90;;;;;;6244125;23;19997;-79
2021/06/16 00:12:09;;;;;;;7.78;4.40;;;18.70;99.90;;;;;;6244236;23;20000;-79
2021/06/16 00:14:36;;;;;;;6.00;5.13;;;18.70;99.90;;;;;;6244442;23;20133;-79
2021/06/16 00:17:02;;;;;;;5.53;4.47;;;18.80;99.90;;;;;;6244728;23;20000;-79
2021/06/16 00:19:28;;;;;;;5.57;5.07;;;18.70;99.90;;;;;;6244895;23;19992;-79
2021/06/16 00:21:53;;;;;;;5.95;4.45;;;18.60;99.90;;;;;;6244458;23;20001;-79
2021/06/16 00:24:20;;;;;;;6.95;5.75;;;18.40;99.90;;;;;;6244990;23;20031;-79
2021/06/16 00:26:49;;;;;;;11.20;4.75;;;18.20;99.90;;;;;;6243847;23;19996;-79
2021/06/16 00:29:15;;;;;;;5.18;4.60;;;18.30;99.90;;;;;;6244961;23;20102;-79
2021/06/16 00:31:41;;;;;;;7.38;4.78;;;18.40;99.90;;;;;;6244460;23;20339;-79
2021/06/16 00:34:07;;;;;;;7.45;5.40;;;18.50;99.90;;;;;;6244661;23;19992;-79
2021/06/16 00:36:33;;;;;;;10.35;4.28;;;18.50;99.90;;;;;;6244070;23;19992;-79
2021/06/16 00:38:59;;;;;;;7.78;5.57;;;18.50;99.90;;;;;;6244406;23;20000;-79
2021/06/16 00:41:26;;;;;;;5.60;4.68;;;18.50;99.90;;;;;;6243860;23;20003;-79
2021/06/16 00:43:52;;;;;;;5.95;4.50;;;18.20;99.90;;;;;;6244057;23;20445;-79
2021/06/16 00:46:18;;;;;;;5.00;4.47;;;18.20;99.90;;;;;;6244644;23;20341;-80
2021/06/16 00:48:44;;;;;;;7.30;4.75;;;18.20;99.90;;;;;;6244298;23;20035;-80
2021/06/16 00:51:10;;;;;;;10.35;5.25;;;18.20;99.90;;;;;;6244636;23;20000;-80
2021/06/16 00:53:36;;;;;;;8.85;4.88;;;18.20;99.90;;;;;;6241415;23;20438;-80
2021/06/16 00:56:01;;;;;;;7.90;5.30;;;18.20;99.90;;;;;;6243702;23;19996;-80
2021/06/16 00:58:27;;;;;;;7.25;5.57;;;18.20;99.90;;;;;;6244722;23;20000;-80
2021/06/16 01:01:11;;;;;;;9.68;5.50;;;18.20;99.90;;;;;;6243726;23;20000;-79
2021/06/16 01:03:45;;;;;;;6.88;4.57;;;18.30;99.90;;;;;;6244525;23;20020;-80
2021/06/16 01:06:22;;;;;;;7.00;4.68;;;18.30;99.90;;;;;;6244067;23;20068;-80
2021/06/16 01:09:02;;;;;;;7.13;4.88;;;18.00;99.90;;;;;;6217454;23;20417;-79
2021/06/16 01:11:30;;;;;;;8.55;4.22;;;17.90;99.90;;;;;;6243686;23;20008;-80
2021/06/16 01:14:05;;;;;;;8.07;5.35;;;17.80;99.90;;;;;;6244016;23;19998;-79
2021/06/16 01:16:46;;;;;;;8.05;4.60;;;17.80;99.90;;;;;;6244291;23;20115;-79
2021/06/16 01:19:41;;;;;;;8.40;5.05;;;17.80;99.90;;;;;;6243768;23;20049;-80
2021/06/16 01:22:25;;;;;;;10.15;4.95;;;17.70;99.90;;;;;;6243886;23;20046;-79
2021/06/16 01:24:54;;;;;;;5.20;4.13;;;17.80;99.90;;;;;;6243787;23;20073;-79
2021/06/16 01:27:21;;;;;;;7.57;5.07;;;17.80;99.90;;;;;;6243103;23;20061;-79
2021/06/16 01:29:48;;;;;;;6.22;4.65;;;17.80;99.90;;;;;;6243905;23;20050;-79
2021/06/16 01:32:14;;;;;;;5.55;4.32;;;17.90;99.90;;;;;;6242926;23;19996;-80
2021/06/16 01:34:41;;;;;;;8.52;4.57;;;17.90;99.90;;;;;;6244091;23;19996;-80
2021/06/16 01:37:08;;;;;;;6.65;4.70;;;18.00;99.90;;;;;;6243697;23;20087;-80
2021/06/16 01:39:38;;;;;;;6.13;4.65;;;18.00;99.90;;;;;;6243792;23;20000;-79
2021/06/16 01:42:08;;;;;;;7.78;4.78;;;17.90;99.90;;;;;;6243617;23;20020;-80
2021/06/16 01:44:34;;;;;;;;;;;17.80;99.90;;;;;;6244370;23;20380;-79
2021/06/16 01:47:00;;;;;;;9.05;4.93;;;17.50;99.90;;;;;;6243700;23;19948;-79
2021/06/16 01:49:28;;;;;;;5.18;4.40;;;17.50;99.90;;;;;;6243612;23;20000;-79
2021/06/16 01:51:56;;;;;;;5.68;4.40;;;17.50;99.90;;;;;;6216994;23;19996;-79
2021/06/16 01:54:24;;;;;;;8.38;4.78;;;17.60;99.90;;;;;;6241631;23;20000;-80
2021/06/16 01:56:51;;;;;;;10.82;4.40;;;17.80;99.90;;;;;;6243793;23;19996;-79
2021/06/16 01:59:19;;;;;;;5.97;4.53;;;17.70;99.90;;;;;;6242906;23;19996;-79
2021/06/16 02:01:49;;;;;;;8.32;4.45;;;17.60;99.90;;;;;;6243952;23;20027;-80
2021/06/16 02:04:16;;;;;;;9.43;4.47;;;17.30;99.90;;;;;;6243007;23;20472;-80
2021/06/16 02:06:46;;;;;;;8.10;4.60;;;17.10;99.90;;;;;;6243810;23;20331;-80
2021/06/16 02:09:13;;;;;;;;;;;17.20;99.90;;;;;;6216669;23;19996;-79
2021/06/16 02:11:41;;;;;;;8.57;5.43;;;17.10;99.90;;;;;;6243109;23;19914;-80
2021/06/16 02:14:11;;;;;;;9.65;5.03;;;17.20;99.90;;;;;;6243459;23;20008;-80
2021/06/16 02:16:46;;;;;;;8.95;4.20;;;17.40;99.90;;;;;;6243776;23;20023;-80
2021/06/16 02:19:16;;;;;;;8.60;4.72;;;17.50;99.90;;;;;;6243225;23;20000;-79
2021/06/16 02:21:42;;;;;;;6.05;4.82;;;17.60;99.90;;;;;;6243539;23;20007;-79
2021/06/16 02:24:09;;;;;;;8.18;4.88;;;17.60;99.90;;;;;;6215790;23;20007;-80
2021/06/16 02:26:36;;;;;;;7.85;4.05;;;17.50;99.90;;;;;;6243389;23;20004;-80
2021/06/16 02:29:08;;;;;;;7.43;4.38;;;17.00;99.90;;;;;;6243706;23;20106;-79
2021/06/16 02:31:34;;;;;;;7.85;4.75;;;17.00;99.90;;;;;;6243445;23;20039;-79
2021/06/16 02:34:00;;;;;;;7.63;5.03;;;17.20;99.90;;;;;;6243394;23;19993;-79
2021/06/16 02:36:29;;;;;;;10.80;4.85;;;17.40;99.90;;;;;;6243297;23;20346;-80
2021/06/16 02:39:01;;;;;;;7.85;4.78;;;17.50;99.90;;;;;;6243301;23;20068;-79
2021/06/16 02:41:28;;;;;;;9.88;4.90;;;17.40;99.90;;;;;;6243233;23;20024;-79
2021/06/16 02:43:54;;;;;;;7.53;6.22;;;17.30;99.90;;;;;;6243530;23;20067;-79
2021/06/16 02:46:21;;;;;;;10.43;4.03;;;17.30;99.90;;;;;;6243414;23;20000;-80
2021/06/16 02:48:52;;;;;;;9.82;4.70;;;17.30;99.90;;;;;;6216569;23;20465;-80
2021/06/16 02:51:19;;;;;;;8.38;4.25;;;17.20;99.90;;;;;;6243017;23;20043;-79
2021/06/16 02:53:46;;;;;;;7.35;5.45;;;17.20;99.90;;;;;;6243350;23;19992;-80
2021/06/16 02:56:13;;;;;;;8.20;5.18;;;17.20;99.90;;;;;;6243297;23;19996;-79
2021/06/16 02:58:42;;;;;;;4.63;4.00;;;17.20;99.90;;;;;;6243279;23;20461;-80
2021/06/16 03:01:15;;;;;;;9.95;4.78;;;17.30;99.90;;;;;;6243041;23;20078;-79
2021/06/16 03:03:47;;;;;;;8.38;4.90;;;17.30;99.90;;;;;;6243542;23;20007;-79
2021/06/16 03:06:15;;;;;;;5.85;4.63;;;17.30;99.90;;;;;;6242407;23;20478;-79
2021/06/16 03:08:44;;;;;;;9.50;4.10;;;17.10;99.90;;;;;;6242779;23;20076;-79
2021/06/16 03:11:12;;;;;;;8.10;4.43;;;17.10;99.90;;;;;;6242746;23;20008;-79
2021/06/16 03:13:38;;;;;;;6.55;4.22;;;17.00;99.90;;;;;;6243170;23;20003;-79
2021/06/16 03:16:04;;;;;;;8.75;4.35;;;17.10;99.90;;;;;;6243481;23;19996;-79
2021/06/16 03:18:31;;;;;;;9.38;4.95;;;17.00;99.90;;;;;;6243463;23;19996;-80
2021/06/16 03:20:58;;;;;;;8.60;5.45;;;17.00;99.90;;;;;;6242899;23;20071;-80
2021/06/16 03:23:26;;;;;;;10.02;4.20;;;17.10;99.90;;;;;;6242650;23;20069;-79
2021/06/16 03:25:55;;;;;;;9.65;5.03;;;17.00;99.90;;;;;;6243511;23;20000;-79
2021/06/16 03:28:24;;;;;;;11.75;4.10;;;16.90;99.90;;;;;;6242950;23;20134;-80
2021/06/16 03:30:53;;;;;;;6.70;4.35;;;16.90;99.90;;;;;;6242975;23;20338;-79
2021/06/16 03:33:20;;;;;;;8.77;4.43;;;16.80;99.90;;;;;;6242813;23;20353;-79
2021/06/16 03:35:46;;;;;;;7.65;3.80;;;16.70;99.90;;;;;;6242823;23;20055;-79
2021/06/16 03:38:12;;;;;;;10.60;4.82;;;16.50;99.90;;;;;;6242988;23;19997;-79
2021/06/16 03:40:38;;;;;;;12.98;4.30;;;16.60;99.90;;;;;;6243087;23;20075;-80
2021/06/16 03:43:05;;;;;;;10.73;5.45;;;16.60;99.90;;;;;;6243205;23;20035;-79
2021/06/16 03:45:32;;;;;;;5.07;3.97;;;16.70;99.90;;;;;;6243193;23;20342;-79
2021/06/16 03:48:02;;;;;;;9.27;3.97;;;16.70;99.90;;;;;;6242961;23;20003;-79
2021/06/16 03:50:29;;;;;;;7.60;4.50;;;16.50;99.90;;;;;;6243048;22;20004;-79
2021/06/16 03:52:56;;;;;;;5.63;3.83;;;16.50;99.90;;;;;;6244266;23;20023;-79
2021/06/16 03:55:22;;;;;;;11.75;4.85;;;16.50;99.90;;;;;;6243817;23;20490;-79
2021/06/16 03:57:49;;;;;;;8.15;5.07;;;16.60;99.90;;;;;;6245157;23;20007;-80
2021/06/16 04:00:16;;;;;;;8.32;5.05;;;16.60;99.90;;;;;;6244184;23;20004;-80
2021/06/16 04:02:42;;;;;;;8.32;4.40;;;16.60;99.90;;;;;;6244749;23;20075;-79
2021/06/16 04:05:09;;;;;;;7.22;4.20;;;16.50;99.90;;;;;;6244554;23;20004;-80
2021/06/16 04:07:35;;;;;;;5.45;4.15;;;16.60;99.90;;;;;;6245092;23;20385;-79
2021/06/16 04:10:03;;;;;;;7.65;4.22;;;16.60;99.90;;;;;;6244167;23;20008;-80
2021/06/16 04:12:28;;;;;;;9.45;4.63;;;16.60;99.90;;;;;;6244524;23;20038;-80
2021/06/16 04:14:55;;;;;;;9.85;5.50;;;16.70;99.90;;;;;;6244018;23;20512;-80
2021/06/16 04:17:22;;;;;;;8.95;4.80;;;16.80;99.90;;;;;;6245533;23;19992;-80
2021/06/16 04:19:50;;;;;;;11.32;4.10;;;16.90;99.90;;;;;;6245608;23;20026;-80
2021/06/16 04:22:16;;;;;;;7.90;4.50;;;16.90;99.90;;;;;;6245565;23;20004;-81
2021/06/16 04:24:42;;;;;;;5.63;4.00;;;16.90;99.90;;;;;;6244966;23;20067;-80
2021/06/16 04:27:08;;;;;;;5.65;4.10;;;16.70;99.90;;;;;;6244590;23;20027;-80
2021/06/16 04:29:35;;;;;;;5.85;4.22;;;16.80;99.90;;;;;;6244662;23;20027;-80
2021/06/16 04:32:01;;;;;;;11.95;4.30;;;16.80;99.90;;;;;;6244539;23;20067;-80
2021/06/16 04:34:27;;;;;;;7.95;4.47;;;16.70;99.90;;;;;;6244134;23;20397;-80
2021/06/16 04:36:53;;;;;;;8.07;4.18;;;16.40;99.90;;;;;;6244357;23;20016;-79
2021/06/16 04:39:19;;;;;;;8.98;5.10;;;16.60;99.90;;;;;;6245719;23;20042;-79
2021/06/16 04:41:45;;;;;;;8.40;5.22;;;16.70;99.90;;;;;;6218635;23;20469;-79
2021/06/16 04:44:12;;;;;;;12.25;5.75;;;17.00;99.90;;;;;;6244686;23;20315;-79
2021/06/16 04:46:38;;;;;;;9.35;4.65;;;17.20;99.90;;;;;;6246223;23;20027;-79
2021/06/16 04:49:05;;;;;;;4.88;4.18;;;17.10;99.90;;;;;;6218773;23;20323;-79
2021/06/16 04:51:30;;;;;;;6.15;3.85;;;17.10;99.90;;;;;;6245704;23;20000;-79
2021/06/16 04:53:56;;;;;;;9.05;4.25;;;17.10;99.90;;;;;;6193807;23;20012;-79
2021/06/16 04:56:22;;;;;;;7.45;4.57;;;17.20;99.90;;;;;;6244981;23;20047;-79
2021/06/16 04:58:48;;;;;;;6.65;4.00;;;17.30;99.90;;;;;;6245426;23;20008;-78
2021/06/16 05:01:14;;;;;;;7.10;3.58;;;17.30;99.90;;;;;;6245932;23;20004;-78
2021/06/16 05:03:40;;;;;;;10.90;5.32;;;17.40;99.90;;;;;;6244945;23;19997;-79
2021/06/16 05:06:06;;;;;;;8.07;4.40;;;17.30;99.90;;;;;;6245029;23;20004;-79
2021/06/16 05:08:32;;;;;;;11.93;5.70;;;17.30;99.90;;;;;;6245262;23;20073;-79
2021/06/16 05:10:58;;;;;;;14.02;4.45;;;17.40;99.90;;;;;;6245263;23;20397;-79
2021/06/16 05:13:24;;;;;;;8.80;4.60;;;17.50;99.90;;;;;;6245376;23;20442;-79
2021/06/16 05:15:52;;;;;;;13.70;4.70;;;17.50;99.90;;;;;;6245511;23;20464;-79
2021/06/16 05:18:18;;;;;;;7.38;4.60;;;17.60;99.90;;;;;;6244703;23;20035;-79
2021/06/16 05:20:44;;;;;;;10.07;5.40;;;17.70;99.90;;;;;;6218425;23;20004;-79
2021/06/16 05:23:10;;;;;;;8.30;4.47;;;17.70;99.90;;;;;;6218668;23;20446;-79
2021/06/16 05:25:36;;;;;;;10.65;4.80;;;17.80;99.90;;;;;;6245781;23;20003;-79
2021/06/16 05:28:02;;;;;;;10.52;4.45;;;17.70;99.90;;;;;;6244998;23;20000;-79
2021/06/16 05:30:28;;;;;;;9.30;4.38;;;17.70;99.90;;;;;;6244847;23;20326;-79
2021/06/16 05:32:54;;;;;;;10.73;4.90;;;17.90;99.90;;;;;;6244619;23;20006;-79
2021/06/16 05:35:20;;;;;;;9.77;4.88;;;18.00;99.90;;;;;;6244689;23;20067;-80
2021/06/16 05:37:46;;;;;;;9.52;5.07;;;18.10;99.90;;;;;;6244905;23;20454;-79
2021/06/16 05:40:14;;;;;;;7.50;4.93;;;18.10;99.90;;;;;;6245557;23;20000;-79
2021/06/16 05:42:40;;;;;;;12.93;4.50;;;18.10;99.90;;;;;;6218265;23;20500;-79
2021/06/16 05:45:07;;;;;;;4.40;3.97;;;18.30;99.90;;;;;;6245107;23;20024;-79
2021/06/16 05:47:32;;;;;;;9.90;5.50;;;18.40;99.90;;;;;;6244654;23;19996;-79
2021/06/16 05:49:58;;;;;;;18.60;6.15;;;18.40;99.90;;;;;;6245183;23;20000;-79
2021/06/16 05:52:24;;;;;;;8.13;4.25;;;18.50;99.90;;;;;;6244982;23;19993;-79
2021/06/16 05:54:50;;;;;;;7.00;4.63;;;18.70;99.90;;;;;;6245259;23;20004;-79
2021/06/16 05:57:16;;;;;;;8.77;4.65;;;18.70;99.90;;;;;;6245203;23;19992;-79
2021/06/16 05:59:42;;;;;;;11.60;4.43;;;18.80;99.90;;;;;;6245297;23;20461;-79
2021/06/16 06:02:08;;;;;;;15.18;6.05;;;18.90;99.90;;;;;;6217832;23;20004;-78
2021/06/16 06:04:34;;;;;;;7.15;4.80;;;19.00;99.90;;;;;;6245192;23;20018;-79
2021/06/16 06:07:02;;;;;;;12.20;5.20;;;19.10;99.90;;;;;;6245135;23;20003;-79
2021/06/16 06:09:27;;;;;;;15.55;4.70;;;19.10;99.90;;;;;;6244784;23;20000;-79
2021/06/16 06:11:53;;;;;;;18.70;5.15;;;19.10;99.90;;;;;;6244805;23;20488;-79
2021/06/16 06:14:19;;;;;;;13.82;5.47;;;19.20;99.90;;;;;;6244737;23;20003;-78
2021/06/16 06:16:44;;;;;;;8.65;4.93;;;19.30;99.90;;;;;;6244685;23;20134;-79
2021/06/16 06:19:10;;;;;;;11.68;5.07;;;19.40;99.90;;;;;;6218094;23;20388;-79
2021/06/16 06:21:36;;;;;;;7.10;4.78;;;19.40;99.90;;;;;;6244774;23;20050;-79
2021/06/16 06:24:03;;;;;;;19.75;5.13;;;19.40;99.90;;;;;;6218134;23;20007;-79
2021/06/16 06:26:29;;;;;;;8.48;4.05;;;19.50;99.90;;;;;;6217996;23;20032;-78
2021/06/16 06:28:55;;;;;;;11.50;4.63;;;19.50;99.90;;;;;;6245091;23;20003;-78
2021/06/16 06:31:22;;;;;;;6.35;4.40;;;19.80;99.90;;;;;;6244330;23;20445;-79
2021/06/16 06:33:47;;;;;;;8.63;5.45;;;20.00;99.90;;;;;;6218245;23;20000;-79
2021/06/16 06:36:14;;;;;;;8.48;4.63;;;20.30;99.90;;;;;;6244754;23;19996;-79
2021/06/16 06:38:40;;;;;;;8.52;5.28;;;20.60;99.90;;;;;;6244908;23;19996;-78
2021/06/16 06:41:06;;;;;;;6.75;4.45;;;20.90;99.90;;;;;;6244961;23;20003;-78
2021/06/16 06:43:32;;;;;;;9.27;4.55;;;21.20;99.90;;;;;;6244449;23;20000;-78
2021/06/16 06:45:57;;;;;;;10.05;5.15;;;21.40;99.90;;;;;;6244422;23;20000;-78
2021/06/16 06:48:23;;;;;;;6.95;4.30;;;21.60;99.90;;;;;;6244584;23;19996;-78
2021/06/16 06:50:50;;;;;;;7.25;4.55;;;21.70;99.90;;;;;;6244593;23;20024;-78
2021/06/16 06:53:17;;;;;;;7.18;4.07;;;21.80;99.90;;;;;;6244794;23;20018;-78
2021/06/16 06:55:43;;;;;;;7.03;4.82;;;22.00;99.90;;;;;;6245205;23;20000;-78
2021/06/16 06:58:09;;;;;;;48.40;7.20;;;22.10;99.90;;;;;;6244327;23;20337;-78
2021/06/16 07:00:35;;;;;;;9.48;4.35;;;22.40;99.90;;;;;;6244570;23;20062;-78
2021/06/16 07:03:01;;;;;;;6.95;4.50;;;22.70;99.90;;;;;;6244894;23;20004;-78
2021/06/16 07:05:27;;;;;;;9.32;4.57;;;22.80;99.90;;;;;;6244631;23;20051;-78
2021/06/16 07:07:53;;;;;;;5.43;4.68;;;23.00;99.90;;;;;;6244989;23;20073;-78
2021/06/16 07:10:19;;;;;;;6.22;4.47;;;23.30;99.90;;;;;;6244175;23;20350;-78
2021/06/16 07:12:45;;;;;;;5.90;4.80;;;23.50;99.90;;;;;;6244347;23;20460;-78
2021/06/16 07:15:12;;;;;;;6.72;4.55;;;23.50;99.90;;;;;;6245314;23;19992;-78
2021/06/16 07:17:38;;;;;;;9.45;4.07;;;23.50;99.90;;;;;;6244566;23;20000;-78
2021/06/16 07:20:06;;;;;;;11.57;4.93;;;23.60;99.90;;;;;;6244786;23;20438;-78
2021/06/16 07:22:32;;;;;;;7.47;5.68;;;23.50;99.90;;;;;;6244972;23;20073;-78
2021/06/16 07:24:58;;;;;;;9.05;5.05;;;23.50;99.90;;;;;;6244562;23;20000;-78
2021/06/16 07:27:24;;;;;;;6.90;4.63;;;23.40;99.90;;;;;;6218827;23;20027;-78
2021/06/16 07:29:50;;;;;;;11.20;5.28;;;23.30;99.90;;;;;;6219690;23;20005;-78
2021/06/16 07:32:17;;;;;;;13.63;4.97;;;23.20;99.90;;;;;;6219836;23;20027;-78
2021/06/16 07:34:43;;;;;;;6.60;5.13;;;23.20;99.90;;;;;;6246455;23;19999;-78
2021/06/16 07:37:09;;;;;;;13.48;5.00;;;23.20;99.90;;;;;;6246713;23;20000;-78
2021/06/16 07:39:35;;;;;;;12.20;5.97;;;23.30;99.90;;;;;;6246497;23;20334;-78
2021/06/16 07:42:01;;;;;;;8.05;4.55;;;23.40;99.90;;;;;;6246222;23;19996;-78
2021/06/16 07:44:27;;;;;;;9.35;5.43;;;23.60;99.90;;;;;;6246348;23;19998;-78
2021/06/16 07:46:53;;;;;;;7.00;4.93;;;23.80;99.90;;;;;;6246289;23;19996;-78
2021/06/16 07:49:19;;;;;;;11.05;4.55;;;24.00;99.90;;;;;;6246530;23;20392;-78
2021/06/16 07:51:45;;;;;;;6.53;4.05;;;24.00;99.90;;;;;;6246415;23;20062;-78
2021/06/16 07:54:11;;;;;;;7.82;4.53;;;24.00;99.90;;;;;;6246484;23;20365;-78
2021/06/16 07:56:41;;;;;;;9.00;4.55;;;24.30;99.90;;;;;;6245989;23;20000;-78
2021/06/16 07:59:08;;;;;;;7.38;5.10;;;24.40;99.90;;;;;;6246414;23;20316;-78
2021/06/16 08:01:34;;;;;;;8.35;4.68;;;24.60;99.90;;;;;;6246079;23;20450;-78
2021/06/16 08:04:00;;;;;;;6.07;4.38;;;24.60;99.90;;;;;;6246407;23;19996;-78
2021/06/16 08:06:27;;;;;;;5.15;4.30;;;24.80;99.90;;;;;;6246356;23;19997;-78
2021/06/16 08:08:52;;;;;;;10.48;4.30;;;25.00;99.90;;;;;;6246130;23;20063;-78
2021/06/16 08:11:21;;;;;;;9.73;4.50;;;25.10;99.90;;;;;;6245590;23;20035;-78
2021/06/16 08:13:46;;;;;;;6.15;4.10;;;25.30;99.90;;;;;;6246230;23;20326;-78
2021/06/16 08:16:14;;;;;;;6.00;4.40;;;25.40;99.90;;;;;;6246222;23;19992;-78
2021/06/16 08:18:40;;;;;;;11.30;4.28;;;25.60;99.90;;;;;;6245993;23;20002;-78
2021/06/16 08:21:06;;;;;;;19.35;4.78;;;25.80;99.90;;;;;;6246179;23;20509;-78
2021/06/16 08:23:32;;;;;;;6.93;4.53;;;25.90;99.90;;;;;;6246029;23;20066;-78
2021/06/16 08:25:58;;;;;;;7.10;4.28;;;26.00;99.90;;;;;;6245751;23;20024;-78
2021/06/16 08:28:24;;;;;;;7.15;4.45;;;26.10;99.90;;;;;;6219299;23;20050;-78
2021/06/16 08:30:50;;;;;;;5.25;3.80;;;26.40;99.90;;;;;;6245903;23;20013;-78
2021/06/16 08:33:16;;;;;;;10.25;4.18;;;26.40;99.90;;;;;;6246015;23;20519;-78
2021/06/16 08:35:42;;;;;;;8.23;4.25;;;26.50;99.90;;;;;;6245975;23;20019;-78
2021/06/16 08:38:07;;;;;;;12.38;4.38;;;26.60;99.90;;;;;;6246245;23;20067;-78
2021/06/16 08:40:33;;;;;;;9.85;4.28;;;26.70;99.90;;;;;;6245604;23;20020;-78
2021/06/16 08:42:59;;;;;;;6.20;4.55;;;26.70;99.90;;;;;;6218958;23;20004;-78
2021/06/16 08:45:26;;;;;;;6.35;4.63;;;26.90;99.90;;;;;;6245825;23;20451;-78
2021/06/16 08:47:53;;;;;;;10.23;4.93;;;26.70;99.90;;;;;;6218859;23;20004;-78
2021/06/16 08:50:19;;;;;;;9.95;4.20;;;27.10;99.90;;;;;;6245882;23;20057;-78
2021/06/16 08:52:46;;;;;;;9.50;5.38;;;27.30;99.90;;;;;;6218667;23;20001;-78
2021/06/16 08:55:14;;;;;;;7.38;4.45;;;27.70;99.90;;;;;;6245678;23;19992;-78
2021/06/16 08:57:40;;;;;;;7.22;4.55;;;27.50;99.90;;;;;;6218750;23;20058;-78
2021/06/16 09:00:09;;;;;;;6.43;4.65;;;27.60;99.90;;;;;;6245777;23;20000;-78
2021/06/16 09:02:35;;;;;;;5.63;4.57;;;27.70;99.90;;;;;;6245733;23;20001;-78
2021/06/16 09:05:01;;;;;;;7.50;4.80;;;28.30;99.90;;;;;;6218800;23;20010;-78
2021/06/16 09:07:30;;;;;;;8.00;4.45;;;28.60;99.90;;;;;;6245661;23;20000;-78
2021/06/16 09:10:18;;;;;;;10.75;4.60;;;28.90;99.90;;;;;;6244982;23;20008;-78
2021/06/16 09:13:00;;;;;;;6.60;4.05;;;28.40;99.90;;;;;;6245545;23;19996;-78
2021/06/16 09:15:30;;;;;;;7.28;4.60;;;28.40;99.90;;;;;;6245727;23;20003;-78
2021/06/16 09:17:59;;;;;;;8.52;4.47;;;29.10;99.90;;;;;;6245577;23;19996;-78
2021/06/16 09:20:26;;;;;;;8.70;4.28;;;29.80;99.90;;;;;;6245714;23;20000;-78
2021/06/16 09:23:09;;;;;;;17.58;5.18;;;30.20;98.50;;;;;;6245240;23;20000;-78
2021/06/16 09:25:35;;;;;;;12.13;4.15;;;30.50;97.10;;;;;;6245447;23;20529;-78
2021/06/16 09:28:02;;;;;;;7.95;3.90;;;30.30;97.00;;;;;;6245498;23;20000;-78
2021/06/16 09:30:34;;;;;;;14.48;5.35;;;29.60;96.90;;;;;;6245477;23;20071;-78
2021/06/16 09:33:09;;;;;;;10.80;4.93;;;29.60;97.00;;;;;;6245382;23;20022;-78
2021/06/16 09:35:38;;;;;;;9.85;5.63;;;29.60;97.00;;;;;;6245355;23;20442;-78
2021/06/16 09:38:11;;;;;;;16.40;4.80;;;29.70;96.30;;;;;;6245384;23;20434;-78
2021/06/16 09:40:41;;;;;;;18.67;4.35;;;29.60;95.80;;;;;;6245461;23;20060;-78
2021/06/16 09:43:08;;;;;;;;;;;29.70;94.30;;;;;;6219035;23;20524;-78
2021/06/16 09:45:37;;;;;;;10.35;5.15;;;29.90;94.40;;;;;;6245375;23;20348;-78
2021/06/16 09:48:38;;;;;;;18.17;4.50;;;29.90;94.80;;;;;;6245158;23;20024;-78
2021/06/16 09:51:28;;;;;;;8.60;4.50;;;29.90;93.60;;;;;;6122871;23;20464;-78
2021/06/16 09:54:13;;;;;;;5.82;4.22;;;29.90;93.40;;;;;;6122592;23;20170;-78
2021/06/16 09:56:59;;;;;;;10.13;4.60;;;30.10;94.10;;;;;;6123274;23;19998;-77
2021/06/16 09:59:39;;;;;;;10.60;5.05;;;30.30;94.20;;;;;;6122993;23;20053;-78
2021/06/16 10:02:13;;;;;;;8.32;4.53;;;30.60;94.60;;;;;;6123151;23;20368;-78
2021/06/16 10:04:49;;;;;;;9.20;4.70;;;31.10;94.50;;;;;;6122878;23;20009;-77
2021/06/16 10:07:20;;;;;;;10.35;5.40;;;31.40;94.00;;;;;;6122792;23;20004;-77
2021/06/16 10:09:50;;;;;;;6.78;4.10;;;31.50;94.50;;;;;;6098126;23;20008;-78
2021/06/16 10:12:16;;;;;;;9.68;4.95;;;31.80;94.20;;;;;;6122872;23;19998;-78
2021/06/16 10:14:43;;;;;;;9.95;5.53;;;32.00;95.40;;;;;;6123011;23;20005;-78
2021/06/16 10:17:09;;;;;;;8.25;5.38;;;32.00;94.30;;;;;;6123129;23;20005;-78
2021/06/16 10:19:35;;;;;;;9.18;4.93;;;32.20;93.30;;;;;;6123030;23;20593;-78
2021/06/16 10:22:04;;;;;;;6.88;5.22;;;32.20;92.70;;;;;;6122287;23;20487;-78
2021/06/16 10:24:30;;;;;;;8.95;5.20;;;32.50;93.60;;;;;;6157143;23;20468;-78
2021/06/16 10:26:58;;;;;;;8.70;4.50;;;34.40;90.90;;;;;;6244964;23;20347;-78
2021/06/16 10:29:31;;;;;;;10.05;5.28;;;37.40;84.60;;;;;;6245013;23;20000;-78
2021/06/16 10:32:06;;;;;;;7.32;4.70;;;39.80;77.00;;;;;;6244993;23;20008;-78
2021/06/16 10:34:53;;;;;;;7.22;4.97;;;40.10;68.60;;;;;;6245108;23;20442;-78
2021/06/16 10:37:30;;;;;;;9.50;5.53;;;39.90;69.10;;;;;;6244681;23;19996;-78
2021/06/16 10:40:22;;;;;;;5.07;4.15;;;40.70;65.80;;;;;;6244882;23;20469;-78
2021/06/16 10:43:02;;;;;;;11.32;4.57;;;40.00;64.70;;;;;;6244571;23;19996;-78
2021/06/16 10:45:40;;;;;;;7.78;4.88;;;40.10;64.40;;;;;;6244911;23;20070;-78
2021/06/16 10:48:08;;;;;;;5.72;4.50;;;40.30;62.90;;;;;;6244716;23;19996;-78
2021/06/16 10:50:46;;;;;;;9.68;5.07;;;40.00;62.70;;;;;;6244495;23;20009;-78
2021/06/16 10:53:13;;;;;;;6.90;5.03;;;40.60;60.30;;;;;;6218048;23;19996;-78
2021/06/16 10:55:54;;;;;;;11.20;4.80;;;40.30;61.20;;;;;;6244876;23;20494;-78
2021/06/16 10:58:30;;;;;;;5.53;4.72;;;40.30;61.40;;;;;;6244837;23;20338;-78
2021/06/16 11:01:19;;;;;;;10.93;5.28;;;40.80;59.70;;;;;;6245918;23;20515;-78
2021/06/16 11:03:54;;;;;;;8.18;5.05;;;40.20;60.30;;;;;;6247139;23;19992;-78
2021/06/16 11:06:37;;;;;;;7.05;5.75;;;40.50;59.50;;;;;;6246525;23;20002;-78
2021/06/16 11:09:06;;;;;;;8.93;5.43;;;41.00;60.70;;;;;;6246773;23;20000;-78
2021/06/16 11:11:49;;;;;;;6.57;4.55;;;41.60;57.60;;;;;;6246464;23;20522;-78
2021/06/16 11:14:34;;;;;;;27.02;6.18;;;41.10;57.50;;;;;;6219857;23;20020;-78
2021/06/16 11:17:00;;;;;;;15.00;5.18;;;43.00;56.10;;;;;;6246712;23;20006;-78
2021/06/16 11:19:40;;;;;;;9.43;5.45;;;42.70;55.90;;;;;;6246557;23;19992;-78
2021/06/16 11:22:28;;;;;;;5.60;4.63;;;43.20;54.50;;;;;;6246569;23;20000;-78
2021/06/16 11:25:17;;;;;;;6.57;4.95;;;43.00;54.30;;;;;;6246407;23;20075;-78
2021/06/16 11:28:10;;;;;;;5.68;5.20;;;43.70;54.90;;;;;;6247159;23;19993;-78
2021/06/16 11:30:47;;;;;;;9.68;5.32;;;42.60;56.60;;;;;;6246526;23;20046;-78
2021/06/16 11:33:16;;;;;;;7.32;5.78;;;43.20;54.80;;;;;;6246536;23;19996;-78
2021/06/16 11:35:43;;;;;;;;;;;42.50;53.40;;;;;;6246804;23;20053;-78
2021/06/16 11:38:10;;;;;;;13.23;6.05;;;42.10;55.50;;;;;;6246407;23;19906;-78
2021/06/16 11:40:36;;;;;;;10.35;5.53;;;42.10;54.60;;;;;;6246675;23;20007;-78
2021/06/16 11:43:03;;;;;;;9.18;5.30;;;42.90;54.80;;;;;;6246621;23;20004;-78
2021/06/16 11:45:32;;;;;;;7.85;5.47;;;43.10;53.80;;;;;;6246378;23;20373;-78
2021/06/16 11:48:00;;;;;;;8.23;6.23;;;43.40;53.00;;;;;;6246697;23;20031;-78
2021/06/16 11:50:33;;;;;;;9.23;5.82;;;43.30;53.70;;;;;;6246443;23;20035;-78
2021/06/16 11:53:05;;;;;;;14.45;6.35;;;44.50;52.30;;;;;;6246447;23;20438;-78
2021/06/16 11:55:48;;;;;;;6.95;6.28;;;43.90;51.40;;;;;;6246292;23;20474;-78
2021/06/16 11:58:32;;;;;;;6.00;5.50;;;44.40;50.60;;;;;;6246457;23;20454;-78
2021/06/16 12:01:12;;;;;;;7.05;6.10;;;43.70;51.10;;;;;;6246287;23;20041;-78
2021/06/16 12:03:42;;;;;;;10.88;6.82;;;43.70;49.90;;;;;;6245986;23;20338;-78
2021/06/16 12:06:11;;;;;;;10.70;5.55;;;44.30;51.80;;;;;;6246163;23;20004;-78
2021/06/16 12:08:38;;;;;;;6.05;5.40;;;44.00;50.00;;;;;;6246372;23;20071;-78
2021/06/16 12:11:25;;;;;;;6.03;5.53;;;44.70;49.00;;;;;;6245830;23;20023;-78
2021/06/16 12:14:17;;;;;;;6.95;5.50;;;44.30;50.40;;;;;;6246542;23;20004;-78
2021/06/16 12:16:43;;;;;;;5.95;5.40;;;42.30;50.20;;;;;;6240711;23;20043;-78
2021/06/16 12:19:18;;;;;;;8.55;6.30;;;41.80;53.00;;;;;;6245737;23;19992;-78
2021/06/16 12:22:00;;;;;;;5.20;4.80;;;41.70;51.90;;;;;;6246423;23;20000;-75
2021/06/16 12:24:44;;;;;;;7.97;5.65;;;40.90;52.90;;;;;;6246268;23;20431;-76
2021/06/16 12:27:13;;;;;;;9.27;5.72;;;38.00;54.50;;;;;;6246127;23;20004;-75
2021/06/16 12:29:49;;;;;;;11.13;6.78;;;38.80;57.50;;;;;;6246332;23;20059;-75
2021/06/16 12:32:34;;;;;;;14.73;5.93;;;41.00;54.20;;;;;;6245647;23;20054;-75
2021/06/16 12:35:19;;;;;;;9.45;5.07;;;41.70;53.10;;;;;;6246079;23;20000;-75
2021/06/16 12:37:50;;;;;;;6.13;5.53;;;42.30;51.50;;;;;;6246295;23;20050;-75
2021/06/16 12:40:17;;;;;;;7.15;5.82;;;42.70;51.10;;;;;;6245919;23;20022;-75
2021/06/16 12:42:46;;;;;;;9.13;5.75;;;43.80;52.90;;;;;;6245892;23;20335;-75
2021/06/16 12:45:38;;;;;;;6.32;5.75;;;44.00;50.10;;;;;;6246059;23;20338;-75
2021/06/16 12:48:16;;;;;;;8.15;6.03;;;43.40;50.70;;;;;;6245492;23;19996;-75
2021/06/16 12:50:51;;;;;;;6.22;5.45;;;43.50;50.40;;;;;;6245955;23;19996;-75
2021/06/16 12:53:18;;;;;;;7.22;6.00;;;42.10;50.60;;;;;;6245867;23;20049;-75
2021/06/16 12:55:50;;;;;;;10.52;5.82;;;39.10;54.90;;;;;;6246059;23;19993;-75
2021/06/16 12:58:16;;;;;;;12.35;6.05;;;37.70;56.80;;;;;;6245690;23;20042;-75